createdAt,value
2023-05-03T00:01:38.148Z,1.90
2023-05-03T00:04:06.465Z,2.10
2023-05-03T00:06:35.704Z,1.50
2023-05-03T00:09:03.616Z,1.93
2023-05-03T00:11:31.532Z,2.00
2023-05-03T00:13:59.384Z,2.30
2023-05-03T00:16:27.269Z,2.30
2023-05-03T00:18:55.158Z,2.40
2023-05-03T00:21:23.214Z,2.00
2023-05-03T00:23:52.408Z,2.10
2023-05-03T00:26:20.618Z,2.23
2023-05-03T00:28:48.608Z,2.10
2023-05-03T00:31:16.643Z,1.90
2023-05-03T00:33:44.527Z,2.00
2023-05-03T00:36:15.527Z,1.97
2023-05-03T00:38:43.768Z,2.00
2023-05-03T00:41:13.971Z,2.00
2023-05-03T00:43:41.919Z,2.00
2023-05-03T00:46:17.118Z,2.23
2023-05-03T00:48:47.755Z,2.17
2023-05-03T00:51:18.631Z,2.43
2023-05-03T00:53:47.400Z,2.27
2023-05-03T00:56:22.883Z,2.70
2023-05-03T00:58:52.874Z,1.97
2023-05-03T01:01:21.358Z,2.20
2023-05-03T01:03:50.702Z,1.90
2023-05-03T01:06:33.555Z,2.07
2023-05-03T01:09:10.441Z,2.33
2023-05-03T01:11:56.311Z,2.30
2023-05-03T01:14:37.079Z,2.53
2023-05-03T01:17:12.919Z,2.50
2023-05-03T01:19:48.911Z,2.97
2023-05-03T01:22:28.296Z,2.70
2023-05-03T01:25:07.565Z,2.60
2023-05-03T01:27:35.966Z,3.03
2023-05-03T01:30:06.839Z,2.93
2023-05-03T01:32:51.196Z,2.93
2023-05-03T01:35:30.226Z,3.00
2023-05-03T01:38:00.575Z,3.03
2023-05-03T01:40:33.256Z,2.97
2023-05-03T01:43:04.087Z,2.80
2023-05-03T01:45:32.138Z,2.47
2023-05-03T01:48:00.862Z,2.70
2023-05-03T01:50:31.753Z,2.47
2023-05-03T01:52:59.636Z,2.90
2023-05-03T01:55:29.030Z,2.70
2023-05-03T01:57:56.907Z,2.97
2023-05-03T02:00:25.755Z,2.60
2023-05-03T02:02:54.485Z,2.97
2023-05-03T02:05:22.527Z,3.27
2023-05-03T02:07:50.422Z,2.80
2023-05-03T02:10:18.681Z,2.60
2023-05-03T02:12:48.248Z,2.80
2023-05-03T02:15:16.796Z,2.73
2023-05-03T02:17:45.537Z,2.90
2023-05-03T02:20:14.005Z,2.80
2023-05-03T02:22:42.163Z,2.83
2023-05-03T02:25:10.412Z,2.70
2023-05-03T02:27:38.844Z,2.13
2023-05-03T02:30:09.814Z,2.60
2023-05-03T02:32:43.145Z,2.43
2023-05-03T02:35:12.087Z,2.20
2023-05-03T02:37:40.092Z,2.53
2023-05-03T02:40:13.198Z,2.40
2023-05-03T02:42:43.069Z,3.60
2023-05-03T02:45:13.359Z,2.57
2023-05-03T02:47:41.281Z,2.53
2023-05-03T02:50:09.688Z,2.63
2023-05-03T02:52:40.596Z,2.50
2023-05-03T02:55:09.862Z,3.07
2023-05-03T02:57:41.010Z,2.47
2023-05-03T03:00:15.504Z,2.60
2023-05-03T03:02:46.849Z,2.60
2023-05-03T03:05:15.077Z,2.27
2023-05-03T03:07:47.636Z,2.43
2023-05-03T03:10:15.574Z,2.37
2023-05-03T03:12:43.797Z,3.00
2023-05-03T03:15:19.819Z,2.27
2023-05-03T03:17:47.884Z,2.30
2023-05-03T03:20:15.978Z,2.30
2023-05-03T03:22:47.508Z,2.67
2023-05-03T03:25:15.990Z,2.53
2023-05-03T03:27:43.850Z,2.53
2023-05-03T03:30:12.358Z,3.60
2023-05-03T03:32:53.363Z,3.00
2023-05-03T03:35:28.642Z,2.67
2023-05-03T03:37:56.710Z,2.70
2023-05-03T03:40:25.411Z,2.57
2023-05-03T03:42:56.013Z,2.63
2023-05-03T03:45:24.252Z,3.23
2023-05-03T03:47:56.698Z,2.97
2023-05-03T03:50:25.361Z,2.53
2023-05-03T03:52:53.500Z,2.67
2023-05-03T03:55:22.139Z,2.50
2023-05-03T03:57:53.271Z,2.60
2023-05-03T04:00:22.617Z,2.20
2023-05-03T04:02:59.526Z,2.27
2023-05-03T04:05:27.431Z,2.77
2023-05-03T04:07:55.671Z,2.73
2023-05-03T04:10:25.957Z,2.33
2023-05-03T04:12:55.595Z,3.13
2023-05-03T04:15:24.353Z,2.60
2023-05-03T04:17:53.798Z,2.50
2023-05-03T04:20:23.481Z,2.53
2023-05-03T04:22:52.737Z,2.80
2023-05-03T04:25:25.577Z,3.83
2023-05-03T04:27:59.097Z,3.10
2023-05-03T04:30:29.435Z,2.63
2023-05-03T04:33:00.668Z,2.53
2023-05-03T04:35:32.649Z,2.70
2023-05-03T04:38:04.683Z,2.03
2023-05-03T04:40:34.797Z,2.83
2023-05-03T04:43:07.856Z,2.63
2023-05-03T04:45:39.396Z,2.20
2023-05-03T04:48:11.182Z,1.97
2023-05-03T04:50:40.536Z,2.03
2023-05-03T04:53:10.711Z,1.90
2023-05-03T04:55:42.374Z,1.63
2023-05-03T04:58:11.038Z,1.90
2023-05-03T05:00:39.962Z,1.80
2023-05-03T05:03:14.106Z,1.90
2023-05-03T05:05:43.496Z,1.60
2023-05-03T05:08:12.509Z,1.67
2023-05-03T05:10:46.810Z,2.00
2023-05-03T05:13:20.007Z,1.60
2023-05-03T05:15:48.021Z,2.20
2023-05-03T05:18:16.238Z,1.80
2023-05-03T05:20:47.393Z,1.67
2023-05-03T05:23:16.131Z,1.93
2023-05-03T05:25:47.055Z,1.70
2023-05-03T05:28:15.405Z,2.43
2023-05-03T05:30:44.629Z,1.97
2023-05-03T05:33:13.022Z,2.10
2023-05-03T05:35:41.246Z,2.00
2023-05-03T05:38:12.297Z,1.77
2023-05-03T05:40:40.429Z,2.03
2023-05-03T05:43:09.617Z,1.80
2023-05-03T05:45:39.635Z,1.77
2023-05-03T05:48:08.296Z,1.50
2023-05-03T05:50:36.577Z,2.03
2023-05-03T05:53:11.274Z,1.77
2023-05-03T05:55:43.375Z,2.30
2023-05-03T05:58:13.713Z,2.70
2023-05-03T06:00:49.161Z,2.80
2023-05-03T06:03:18.166Z,2.80
2023-05-03T06:05:49.290Z,2.60
2023-05-03T06:08:19.021Z,2.10
2023-05-03T06:10:46.951Z,2.03
2023-05-03T06:13:16.042Z,1.60
2023-05-03T06:15:44.953Z,1.80
2023-05-03T06:18:13.024Z,1.30
2023-05-03T06:20:41.233Z,1.57
2023-05-03T06:23:09.338Z,1.83
2023-05-03T06:25:40.157Z,1.57
2023-05-03T06:28:08.727Z,1.60
2023-05-03T06:30:40.806Z,1.60
2023-05-03T06:33:14.899Z,1.30
2023-05-03T06:35:47.120Z,1.50
2023-05-03T06:38:16.681Z,1.90
2023-05-03T06:40:47.724Z,1.90
2023-05-03T06:43:15.873Z,1.90
2023-05-03T06:45:53.106Z,2.27
2023-05-03T06:48:21.644Z,2.10
2023-05-03T06:50:50.702Z,2.20
2023-05-03T06:53:18.607Z,2.17
2023-05-03T06:55:48.402Z,1.93
2023-05-03T06:58:16.778Z,1.70
2023-05-03T07:00:44.777Z,2.30
2023-05-03T07:03:12.818Z,2.37
2023-05-03T07:05:41.345Z,2.60
2023-05-03T07:08:09.242Z,2.20
2023-05-03T07:10:37.347Z,2.13
2023-05-03T07:13:06.713Z,2.63
2023-05-03T07:15:38.183Z,2.60
2023-05-03T07:18:06.281Z,2.33
2023-05-03T07:20:34.198Z,2.60
2023-05-03T07:23:02.563Z,2.20
2023-05-03T07:25:31.615Z,2.70
2023-05-03T07:28:01.339Z,2.20
2023-05-03T07:30:30.677Z,2.00
2023-05-03T07:32:58.670Z,1.93
2023-05-03T07:35:29.369Z,2.00
2023-05-03T07:37:57.627Z,1.60
2023-05-03T07:40:28.656Z,2.10
2023-05-03T07:42:56.615Z,2.00
2023-05-03T07:45:24.752Z,2.03
2023-05-03T07:47:54.060Z,2.13
2023-05-03T07:50:22.216Z,2.10
2023-05-03T07:52:51.977Z,1.80
2023-05-03T07:55:21.210Z,1.63
2023-05-03T07:57:49.315Z,1.60
2023-05-03T08:00:18.043Z,2.03
2023-05-03T08:02:46.353Z,1.73
2023-05-03T08:05:16.349Z,1.97
2023-05-03T08:07:44.439Z,1.90
2023-05-03T08:10:12.916Z,1.40
2023-05-03T08:12:41.052Z,1.97
2023-05-03T08:15:10.058Z,1.40
2023-05-03T08:17:46.337Z,1.90
2023-05-03T08:20:16.686Z,1.33
2023-05-03T08:22:46.428Z,1.83
2023-05-03T08:25:16.749Z,1.90
2023-05-03T08:27:44.696Z,1.90
2023-05-03T08:30:13.041Z,1.80
2023-05-03T08:32:41.390Z,1.50
2023-05-03T08:35:10.435Z,2.00
2023-05-03T08:37:44.004Z,1.60
2023-05-03T08:40:15.125Z,1.70
2023-05-03T08:42:44.894Z,1.63
2023-05-03T08:45:17.090Z,1.70
2023-05-03T08:47:45.927Z,2.03
2023-05-03T08:50:16.153Z,2.17
2023-05-03T08:52:45.630Z,1.60
2023-05-03T08:55:13.861Z,1.73
2023-05-03T08:57:42.122Z,1.60
2023-05-03T09:00:12.954Z,1.80
2023-05-03T09:02:41.956Z,1.90
2023-05-03T09:05:33.643Z,2.00
2023-05-03T09:08:04.991Z,1.90
2023-05-03T09:10:34.446Z,2.07
2023-05-03T09:13:03.559Z,1.80
2023-05-03T09:15:32.070Z,1.70
2023-05-03T09:18:11.750Z,1.83
2023-05-03T09:20:42.407Z,1.70
2023-05-03T09:23:13.234Z,2.00
2023-05-03T09:25:43.573Z,1.50
2023-05-03T09:28:11.851Z,1.77
2023-05-03T09:30:39.810Z,1.93
2023-05-03T09:33:08.347Z,1.60
2023-05-03T09:35:36.882Z,1.93
2023-05-03T09:38:07.221Z,2.20
2023-05-03T09:40:48.995Z,2.40
2023-05-03T09:43:19.382Z,2.00
2023-05-03T09:45:47.656Z,2.00
2023-05-03T09:48:17.101Z,2.00
2023-05-03T09:50:45.692Z,1.90
2023-05-03T09:53:18.638Z,1.80
2023-05-03T09:55:51.159Z,1.70
2023-05-03T09:58:20.778Z,1.60
2023-05-03T10:00:52.581Z,2.10
2023-05-03T10:03:30.757Z,2.00
2023-05-03T10:06:03.838Z,1.80
2023-05-03T10:08:41.276Z,2.00
2023-05-03T10:11:15.464Z,1.80
2023-05-03T10:13:43.649Z,2.43
2023-05-03T10:16:19.692Z,1.70
2023-05-03T10:18:57.607Z,1.90
2023-05-03T10:21:39.227Z,1.70
2023-05-03T10:24:17.860Z,2.00
2023-05-03T10:26:50.928Z,2.13
2023-05-03T10:29:52.196Z,1.90
2023-05-03T10:32:39.565Z,1.73
2023-05-03T10:35:11.307Z,2.17
2023-05-03T10:37:42.951Z,2.00
2023-05-03T10:40:14.661Z,1.90
2023-05-03T10:42:50.924Z,2.20
2023-05-03T10:45:25.453Z,2.13
2023-05-03T10:48:20.746Z,2.20
2023-05-03T10:50:50.128Z,2.20
2023-05-03T10:53:38.830Z,2.47
2023-05-03T10:56:09.024Z,2.63
2023-05-03T10:58:43.180Z,1.90
2023-05-03T11:01:13.993Z,2.40
2023-05-03T11:03:53.288Z,2.30
2023-05-03T11:06:36.308Z,2.10
2023-05-03T11:09:07.099Z,1.90
2023-05-03T11:11:39.228Z,2.10
2023-05-03T11:14:09.867Z,2.27
2023-05-03T11:16:40.551Z,2.30
2023-05-03T11:19:09.288Z,2.13
2023-05-03T11:21:37.918Z,3.17
2023-05-03T11:24:07.217Z,2.37
2023-05-03T11:26:40.498Z,2.00
2023-05-03T11:29:13.114Z,2.70
2023-05-03T11:31:43.574Z,2.70
2023-05-03T11:34:12.550Z,2.20
2023-05-03T11:36:42.700Z,2.20
2023-05-03T11:39:13.050Z,2.50
2023-05-03T11:41:42.020Z,2.00
2023-05-03T11:44:17.599Z,2.40
2023-05-03T11:46:48.994Z,2.50
2023-05-03T11:49:20.109Z,2.30
2023-05-03T11:51:51.639Z,2.40
2023-05-03T11:54:25.908Z,2.30
2023-05-03T11:56:57.727Z,2.37
2023-05-03T11:59:38.585Z,2.07
2023-05-03T12:02:09.253Z,2.57
2023-05-03T12:04:41.701Z,2.50
2023-05-03T12:07:11.394Z,2.30
2023-05-03T12:09:41.347Z,2.40
2023-05-03T12:12:13.625Z,2.30
2023-05-03T12:15:04.133Z,2.63
2023-05-03T12:17:39.123Z,2.13
2023-05-03T12:22:57.740Z,2.80
2023-05-03T12:25:30.890Z,2.60
2023-05-03T12:30:36.279Z,3.00
2023-05-03T12:33:07.898Z,2.90
2023-05-03T12:35:40.536Z,3.00
2023-05-03T12:38:10.171Z,4.97
2023-05-03T12:40:39.617Z,3.13
2023-05-03T12:43:09.006Z,6.60
2023-05-03T12:45:40.983Z,2.90
2023-05-03T12:48:09.545Z,3.27
2023-05-03T12:50:39.365Z,3.33
2023-05-03T12:53:09.822Z,2.60
2023-05-03T12:55:42.904Z,2.93
2023-05-03T13:01:22.025Z,3.57
2023-05-03T13:03:43.069Z,3.37
2023-05-03T13:06:13.828Z,2.90
2023-05-03T13:11:13.915Z,3.43
2023-05-03T13:13:42.308Z,3.47
2023-05-03T13:16:11.651Z,3.00
2023-05-03T13:18:39.785Z,3.20
2023-05-03T13:21:08.212Z,3.10
2023-05-03T13:23:36.523Z,3.43
2023-05-03T13:26:04.910Z,3.53
2023-05-03T13:28:32.894Z,3.30
2023-05-03T13:31:00.851Z,3.37
2023-05-03T13:33:30.219Z,3.30
2023-05-03T13:35:58.125Z,3.30
2023-05-03T13:38:26.461Z,3.20
2023-05-03T13:40:54.890Z,3.50
2023-05-03T13:43:22.900Z,2.90
2023-05-03T13:45:52.564Z,2.97
2023-05-03T13:48:20.576Z,3.23
2023-05-03T13:50:51.024Z,3.37
2023-05-03T13:53:19.227Z,2.93
2023-05-03T13:55:47.461Z,3.20
2023-05-03T13:58:15.515Z,3.10
2023-05-03T14:00:43.468Z,3.97
2023-05-03T14:03:11.848Z,2.97
2023-05-03T14:05:40.081Z,3.70
2023-05-03T14:08:09.521Z,3.27
2023-05-03T14:10:37.709Z,3.53
2023-05-03T14:13:05.757Z,3.20
2023-05-03T14:15:33.921Z,3.27
2023-05-03T14:18:05.444Z,3.50
2023-05-03T14:20:34.844Z,3.60
2023-05-03T14:23:03.705Z,3.30
2023-05-03T14:25:32.947Z,3.47
2023-05-03T14:28:01.223Z,3.40
2023-05-03T14:30:29.152Z,3.30
2023-05-03T14:32:57.656Z,2.90
2023-05-03T14:35:26.038Z,2.97
2023-05-03T14:37:54.738Z,3.87
2023-05-03T14:40:22.736Z,3.13
2023-05-03T14:42:52.218Z,3.57
2023-05-03T14:45:20.707Z,3.33
2023-05-03T14:47:48.627Z,4.00
2023-05-03T14:50:16.999Z,3.60
2023-05-03T14:52:44.951Z,3.30
2023-05-03T14:55:12.910Z,3.27
2023-05-03T14:57:40.803Z,3.47
2023-05-03T15:00:14.475Z,2.90
2023-05-03T15:02:43.760Z,3.03
2023-05-03T15:05:12.782Z,3.30
2023-05-03T15:07:41.093Z,3.10
2023-05-03T15:10:10.092Z,3.00
2023-05-03T15:12:39.975Z,3.00
2023-05-03T15:15:12.041Z,2.90
2023-05-03T15:17:39.999Z,2.80
2023-05-03T15:20:10.801Z,2.80
2023-05-03T15:22:38.709Z,2.70
2023-05-03T15:25:07.725Z,3.53
2023-05-03T15:27:35.817Z,3.07
2023-05-03T15:30:04.222Z,2.73
2023-05-03T15:32:33.878Z,2.67
2023-05-03T15:35:01.962Z,3.40
2023-05-03T15:37:37.499Z,2.77
2023-05-03T15:40:09.595Z,2.60
2023-05-03T15:42:37.714Z,3.20
2023-05-03T15:45:08.568Z,2.80
2023-05-03T15:47:38.569Z,3.10
2023-05-03T15:50:08.669Z,2.47
2023-05-03T15:52:37.303Z,2.33
2023-05-03T15:55:07.060Z,2.50
2023-05-03T15:57:34.935Z,2.60
2023-05-03T16:00:14.961Z,2.63
2023-05-03T16:02:44.191Z,2.20
2023-05-03T16:05:12.526Z,2.20
2023-05-03T16:07:40.553Z,2.10
2023-05-03T16:10:10.486Z,2.27
2023-05-03T16:12:38.830Z,2.40
2023-05-03T16:15:08.225Z,2.50
2023-05-03T16:17:36.424Z,2.27
2023-05-03T16:20:07.998Z,2.03
2023-05-03T16:22:37.075Z,2.37
2023-05-03T16:25:07.342Z,2.40
2023-05-03T16:27:35.242Z,2.43
2023-05-03T16:30:03.603Z,2.30
2023-05-03T16:32:31.983Z,2.10
2023-05-03T16:35:00.140Z,2.30
2023-05-03T16:37:29.669Z,1.90
2023-05-03T16:39:57.683Z,2.13
2023-05-03T16:42:25.646Z,2.20
2023-05-03T16:44:53.627Z,2.20
2023-05-03T16:47:22.128Z,2.50
2023-05-03T16:49:50.058Z,2.13
2023-05-03T16:52:17.929Z,2.17
2023-05-03T16:54:47.144Z,2.17
2023-05-03T16:57:15.194Z,2.43
2023-05-03T16:59:43.077Z,2.20
2023-05-03T17:02:11.435Z,2.30
2023-05-03T17:04:39.364Z,2.20
2023-05-03T17:07:07.328Z,2.57
2023-05-03T17:09:35.247Z,2.47
2023-05-03T17:12:04.703Z,2.43
2023-05-03T17:14:32.600Z,2.20
2023-05-03T17:17:00.506Z,2.00
2023-05-03T17:19:29.375Z,2.43
2023-05-03T17:21:57.531Z,2.30
2023-05-03T17:24:27.192Z,2.30
2023-05-03T17:26:55.200Z,2.40
2023-05-03T17:29:24.520Z,2.30
2023-05-03T17:31:52.639Z,2.17
2023-05-03T17:34:22.334Z,2.50
2023-05-03T17:36:50.283Z,2.67
2023-05-03T17:39:18.170Z,2.10
2023-05-03T17:41:46.075Z,2.17
2023-05-03T17:44:14.301Z,2.07
2023-05-03T17:46:44.518Z,2.30
2023-05-03T17:49:12.794Z,2.40
2023-05-03T17:51:41.101Z,2.07
2023-05-03T17:54:09.429Z,2.43
2023-05-03T17:56:37.410Z,2.30
2023-05-03T17:59:05.430Z,2.40
2023-05-03T18:01:33.474Z,2.30
2023-05-03T18:04:02.998Z,3.90
2023-05-03T18:06:31.454Z,2.97
2023-05-03T18:08:59.444Z,2.77
2023-05-03T18:11:27.680Z,2.63
2023-05-03T18:13:55.915Z,3.00
2023-05-03T18:16:23.881Z,3.43
2023-05-03T18:18:52.912Z,2.90
2023-05-03T18:21:23.525Z,3.27
2023-05-03T18:23:52.156Z,2.97
2023-05-03T18:26:20.039Z,2.63
2023-05-03T18:28:47.940Z,3.00
2023-05-03T18:31:16.004Z,3.03
2023-05-03T18:33:43.966Z,2.67
2023-05-03T18:36:13.747Z,3.00
2023-05-03T18:38:44.162Z,3.27
2023-05-03T18:41:14.381Z,2.80
2023-05-03T18:43:43.410Z,5.60
2023-05-03T18:46:12.296Z,7.00
2023-05-03T18:48:41.285Z,6.70
2023-05-03T18:51:09.349Z,4.97
2023-05-03T18:53:37.486Z,4.70
2023-05-03T18:56:07.296Z,4.27
2023-05-03T18:58:35.205Z,4.90
2023-05-03T19:01:04.780Z,6.97
2023-05-03T19:03:32.915Z,6.53
2023-05-03T19:06:02.509Z,7.23
2023-05-03T19:08:30.940Z,7.07
2023-05-03T19:11:07.288Z,7.30
2023-05-03T19:13:37.039Z,6.53
2023-05-03T19:16:05.242Z,5.30
2023-05-03T19:18:37.117Z,5.57
2023-05-03T19:21:05.862Z,5.57
2023-05-03T19:23:33.922Z,5.10
2023-05-03T19:26:01.799Z,5.37
2023-05-03T19:28:30.361Z,4.43
2023-05-03T19:31:03.803Z,5.23
2023-05-03T19:33:31.868Z,5.73
2023-05-03T19:36:06.084Z,6.40
2023-05-03T19:38:35.975Z,5.50
2023-05-03T19:41:07.727Z,4.70
2023-05-03T19:43:35.684Z,3.93
2023-05-03T19:46:05.724Z,3.47
2023-05-03T19:48:34.221Z,3.83
2023-05-03T19:51:02.573Z,3.33
2023-05-03T19:53:31.394Z,3.23
2023-05-03T19:56:01.149Z,3.87
2023-05-03T19:58:29.858Z,3.10
2023-05-03T20:00:59.811Z,3.00
2023-05-03T20:03:29.326Z,3.13
2023-05-03T20:05:58.266Z,4.27
2023-05-03T20:08:26.438Z,4.80
2023-05-03T20:10:55.594Z,5.30
2023-05-03T20:13:25.793Z,5.17
2023-05-03T20:15:54.342Z,4.40
2023-05-03T20:18:22.386Z,3.97
2023-05-03T20:20:51.638Z,3.90
2023-05-03T20:23:19.594Z,4.00
2023-05-03T20:25:47.472Z,3.20
2023-05-03T20:28:15.356Z,3.20
2023-05-03T20:30:43.862Z,3.50
2023-05-03T20:33:12.352Z,3.20
2023-05-03T20:35:40.672Z,3.30
2023-05-03T20:38:09.907Z,4.20
2023-05-03T20:40:39.081Z,3.60
2023-05-03T20:43:08.792Z,3.70
2023-05-03T20:45:36.684Z,4.10
2023-05-03T20:48:05.314Z,3.50
2023-05-03T20:50:33.255Z,3.97
2023-05-03T20:53:01.157Z,3.80
2023-05-03T20:55:30.987Z,3.87
2023-05-03T20:57:58.903Z,4.30
2023-05-03T21:00:27.246Z,4.27
2023-05-03T21:02:55.564Z,4.97
2023-05-03T21:05:23.635Z,5.03
2023-05-03T21:07:52.906Z,4.30
2023-05-03T21:10:21.291Z,3.93
2023-05-03T21:12:51.032Z,4.03
2023-05-03T21:15:19.231Z,3.67
2023-05-03T21:17:47.594Z,4.27
2023-05-03T21:20:15.752Z,3.60
2023-05-03T21:22:43.936Z,3.33
2023-05-03T21:25:11.959Z,3.57
2023-05-03T21:27:39.832Z,3.53
2023-05-03T21:30:10.947Z,3.97
2023-05-03T21:32:39.124Z,3.63
2023-05-03T21:35:09.169Z,3.00
2023-05-03T21:37:37.061Z,3.43
2023-05-03T21:40:06.924Z,4.13
2023-05-03T21:42:35.019Z,4.17
2023-05-03T21:45:02.936Z,4.13
2023-05-03T21:47:32.187Z,3.87
2023-05-03T21:50:00.958Z,3.20
2023-05-03T21:52:28.878Z,3.43
2023-05-03T21:54:56.749Z,3.67
2023-05-03T21:57:24.632Z,3.53
2023-05-03T21:59:53.875Z,4.03
2023-05-03T22:02:22.462Z,3.47
2023-05-03T22:04:52.695Z,3.67
2023-05-03T22:07:20.633Z,3.57
2023-05-03T22:09:49.813Z,3.73
2023-05-03T22:12:24.221Z,3.43
2023-05-03T22:14:53.254Z,4.00
2023-05-03T22:17:21.513Z,4.00
2023-05-03T22:19:50.729Z,3.63
2023-05-03T22:22:18.650Z,3.80
2023-05-03T22:24:46.678Z,3.80
2023-05-03T22:27:14.719Z,3.77
2023-05-03T22:29:42.743Z,3.47
2023-05-03T22:32:11.319Z,3.30
2023-05-03T22:34:39.201Z,3.00
2023-05-03T22:37:08.684Z,2.97
2023-05-03T22:39:36.630Z,3.40
2023-05-03T22:42:05.369Z,2.93
2023-05-03T22:44:33.617Z,2.87
2023-05-03T22:47:01.530Z,2.90
2023-05-03T22:49:29.462Z,3.00
2023-05-03T22:51:58.373Z,3.27
2023-05-03T22:54:27.560Z,3.00
2023-05-03T22:56:55.605Z,2.77
2023-05-03T22:59:23.489Z,3.30
2023-05-03T23:01:51.600Z,3.10
2023-05-03T23:04:19.994Z,2.67
2023-05-03T23:06:48.192Z,2.93
2023-05-03T23:09:16.391Z,3.83
2023-05-03T23:11:45.775Z,3.23
2023-05-03T23:14:13.817Z,3.23
2023-05-03T23:16:42.824Z,2.80
2023-05-03T23:19:10.706Z,2.47
2023-05-03T23:21:39.040Z,2.70
2023-05-03T23:24:07.845Z,2.97
2023-05-03T23:26:35.775Z,2.43
2023-05-03T23:29:05.394Z,2.53
2023-05-03T23:31:34.822Z,2.10
2023-05-03T23:34:05.325Z,2.87
2023-05-03T23:36:34.107Z,3.00
2023-05-03T23:39:02.034Z,2.70
2023-05-03T23:41:29.932Z,3.93
2023-05-03T23:43:57.816Z,3.17
2023-05-03T23:46:27.130Z,2.57
2023-05-03T23:48:55.040Z,2.93
2023-05-03T23:51:25.681Z,2.60
2023-05-03T23:53:53.768Z,2.60
2023-05-03T23:56:21.657Z,2.43
2023-05-03T23:58:49.838Z,2.60
